sensor_id;sensor_type;location;lat;lon;timestamp;pressure;altitude;pressure_sealevel;temperature;humidity
55215;BME280;41084;45.908;6.102;2022-08-19T15:39:08;96656.03;;;25.42;66.46
55215;BME280;41084;45.908;6.102;2022-08-19T15:41:34;96691.22;;;25.34;63.24
55215;BME280;41084;45.908;6.102;2022-08-19T15:44:07;96678.28;;;25.14;60.67
55215;BME280;41084;45.908;6.102;2022-08-19T15:46:35;96661.44;;;25.07;62.11
55215;BME280;41084;45.908;6.102;2022-08-19T15:49:02;96669.72;;;25.21;62.60
55215;BME280;41084;45.908;6.102;2022-08-19T15:51:30;96688.88;;;25.31;59.81
55215;BME280;41084;45.908;6.102;2022-08-19T15:54:00;96678.66;;;25.45;61.25
55215;BME280;41084;45.908;6.102;2022-08-19T15:56:26;96659.34;;;25.52;59.79
55215;BME280;41084;45.908;6.102;2022-08-19T15:59:12;96680.31;;;25.62;59.68
55215;BME280;41084;45.908;6.102;2022-08-19T16:01:55;96689.75;;;25.57;59.21
55215;BME280;41084;45.908;6.102;2022-08-19T16:04:39;96673.06;;;25.39;59.71
55215;BME280;41084;45.908;6.102;2022-08-19T16:07:23;96690.56;;;25.49;60.49
55215;BME280;41084;45.908;6.102;2022-08-19T16:09:49;96581.84;;;24.68;60.14
55215;BME280;41084;45.908;6.102;2022-08-19T16:12:14;96634.69;;;24.93;60.66
55215;BME280;41084;45.908;6.102;2022-08-19T16:14:40;96606.81;;;24.99;59.98
55215;BME280;41084;45.908;6.102;2022-08-19T16:17:06;96677.56;;;24.87;60.03
55215;BME280;41084;45.908;6.102;2022-08-19T16:19:35;96687.41;;;25.53;59.09
55215;BME280;41084;45.908;6.102;2022-08-19T16:22:02;96687.28;;;25.80;59.34
55215;BME280;41084;45.908;6.102;2022-08-19T16:24:31;96693.72;;;25.69;58.41
55215;BME280;41084;45.908;6.102;2022-08-19T16:27:01;96639.34;;;25.92;57.08
55215;BME280;41084;45.908;6.102;2022-08-19T16:29:27;96681.59;;;26.25;56.87
55215;BME280;41084;45.908;6.102;2022-08-19T16:31:53;96679.56;;;26.44;56.21
55215;BME280;41084;45.908;6.102;2022-08-19T16:34:21;96674.97;;;26.29;56.25
55215;BME280;41084;45.908;6.102;2022-08-19T16:36:53;96635.03;;;25.90;57.49
55215;BME280;41084;45.908;6.102;2022-08-19T16:39:19;96675.28;;;26.26;58.04
55215;BME280;41084;45.908;6.102;2022-08-19T16:41:44;96695.31;;;26.20;58.45
55215;BME280;41084;45.908;6.102;2022-08-19T16:44:12;96695.47;;;26.19;57.48
55215;BME280;41084;45.908;6.102;2022-08-19T16:46:39;96670.53;;;26.13;57.93
55215;BME280;41084;45.908;6.102;2022-08-19T16:49:07;96700.56;;;26.54;58.82
55215;BME280;41084;45.908;6.102;2022-08-19T16:51:32;96693.53;;;27.80;55.22
55215;BME280;41084;45.908;6.102;2022-08-19T16:53:59;96687.34;;;29.09;49.64
55215;BME280;41084;45.908;6.102;2022-08-19T16:56:25;96674.44;;;31.68;42.05
55215;BME280;41084;45.908;6.102;2022-08-19T16:58:52;96679.28;;;34.89;34.82
55215;BME280;41084;45.908;6.102;2022-08-19T17:01:18;96636.13;;;36.66;31.15
55215;BME280;41084;45.908;6.102;2022-08-19T17:03:44;96681.31;;;38.48;28.24
55215;BME280;41084;45.908;6.102;2022-08-19T17:06:21;96641.31;;;38.90;25.19
55215;BME280;41084;45.908;6.102;2022-08-19T17:08:52;96673.84;;;39.66;25.97
55215;BME280;41084;45.908;6.102;2022-08-19T17:11:19;96673.84;;;39.66;25.49
55215;BME280;41084;45.908;6.102;2022-08-19T17:13:46;96598.13;;;39.45;25.22
55215;BME280;41084;45.908;6.102;2022-08-19T17:16:12;96663.91;;;40.15;24.78
55215;BME280;41084;45.908;6.102;2022-08-19T17:18:37;96655.66;;;39.94;24.68
55215;BME280;41084;45.908;6.102;2022-08-19T17:21:03;96672.56;;;39.74;25.29
55215;BME280;41084;45.908;6.102;2022-08-19T17:23:29;96655.59;;;39.46;24.83
55215;BME280;41084;45.908;6.102;2022-08-19T17:25:55;96665.88;;;38.04;26.41
55215;BME280;41084;45.908;6.102;2022-08-19T17:28:27;96620.38;;;37.85;24.63
55215;BME280;41084;45.908;6.102;2022-08-19T17:30:53;96672.03;;;35.40;28.82
55215;BME280;41084;45.908;6.102;2022-08-19T17:33:20;96635.47;;;36.47;27.56
55215;BME280;41084;45.908;6.102;2022-08-19T17:35:46;96676.34;;;37.66;26.45
55215;BME280;41084;45.908;6.102;2022-08-19T17:38:17;96679.94;;;37.89;23.82
55215;BME280;41084;45.908;6.102;2022-08-19T17:40:43;96620.22;;;35.51;27.61
55215;BME280;41084;45.908;6.102;2022-08-19T17:43:11;96689.38;;;34.57;29.34
55215;BME280;41084;45.908;6.102;2022-08-19T17:45:38;96673.94;;;34.71;28.62
55215;BME280;41084;45.908;6.102;2022-08-19T17:48:04;96683.63;;;33.64;30.99
55215;BME280;41084;45.908;6.102;2022-08-19T17:50:30;96636.03;;;31.96;33.48
55215;BME280;41084;45.908;6.102;2022-08-19T17:52:56;96609.69;;;30.71;36.02
55215;BME280;41084;45.908;6.102;2022-08-19T17:55:23;96687.03;;;30.49;37.67
55215;BME280;41084;45.908;6.102;2022-08-19T17:57:49;96685.13;;;29.34;39.57
55215;BME280;41084;45.908;6.102;2022-08-19T18:00:16;96684.28;;;28.60;41.01
55215;BME280;41084;45.908;6.102;2022-08-19T18:05:09;96687.84;;;28.07;43.23
55215;BME280;41084;45.908;6.102;2022-08-19T18:07:34;96686.78;;;27.92;44.25
55215;BME280;41084;45.908;6.102;2022-08-19T18:09:59;96686.22;;;27.59;45.80
55215;BME280;41084;45.908;6.102;2022-08-19T18:12:25;96697.38;;;27.54;45.83
55215;BME280;41084;45.908;6.102;2022-08-19T18:14:51;96681.78;;;27.36;46.78
55215;BME280;41084;45.908;6.102;2022-08-19T18:17:16;96699.13;;;27.38;47.11
55215;BME280;41084;45.908;6.102;2022-08-19T18:19:45;96708.78;;;27.31;47.77
55215;BME280;41084;45.908;6.102;2022-08-19T18:22:19;96665.53;;;26.75;48.31
55215;BME280;41084;45.908;6.102;2022-08-19T18:24:46;96710.34;;;26.85;50.08
55215;BME280;41084;45.908;6.102;2022-08-19T18:27:12;96662.69;;;26.53;50.68
55215;BME280;41084;45.908;6.102;2022-08-19T18:29:38;96723.97;;;26.73;52.42
55215;BME280;41084;45.908;6.102;2022-08-19T18:32:05;96715.78;;;26.52;53.75
55215;BME280;41084;45.908;6.102;2022-08-19T18:34:36;96621.38;;;25.70;54.81
55215;BME280;41084;45.908;6.102;2022-08-19T18:37:01;96725.53;;;26.26;56.04
55215;BME280;41084;45.908;6.102;2022-08-19T18:39:26;96711.16;;;26.29;56.06
55215;BME280;41084;45.908;6.102;2022-08-19T18:42:15;96741.56;;;26.49;56.44
55215;BME280;41084;45.908;6.102;2022-08-19T18:44:59;96711.16;;;26.29;54.47
55215;BME280;41084;45.908;6.102;2022-08-19T18:47:43;96726.25;;;26.03;55.70
55215;BME280;41084;45.908;6.102;2022-08-19T18:50:27;96695.00;;;25.48;56.99
55215;BME280;41084;45.908;6.102;2022-08-19T18:52:55;96661.09;;;24.93;61.07
55215;BME280;41084;45.908;6.102;2022-08-19T18:55:20;96735.78;;;25.37;60.98
55215;BME280;41084;45.908;6.102;2022-08-19T18:57:47;96518.75;;;23.88;62.26
55215;BME280;41084;45.908;6.102;2022-08-19T19:00:15;96744.66;;;25.19;61.64
55215;BME280;41084;45.908;6.102;2022-08-19T19:02:40;96718.19;;;24.94;62.58
55215;BME280;41084;45.908;6.102;2022-08-19T19:05:06;96738.97;;;24.98;62.82
55215;BME280;41084;45.908;6.102;2022-08-19T19:07:33;96666.00;;;24.36;63.19
55215;BME280;41084;45.908;6.102;2022-08-19T19:09:59;96754.38;;;24.76;64.72
55215;BME280;41084;45.908;6.102;2022-08-19T19:12:25;96746.13;;;24.44;65.55
55215;BME280;41084;45.908;6.102;2022-08-19T19:14:54;96763.75;;;24.43;66.87
55215;BME280;41084;45.908;6.102;2022-08-19T19:17:19;96665.03;;;23.66;68.35
55215;BME280;41084;45.908;6.102;2022-08-19T19:19:51;96770.16;;;24.14;69.12
55215;BME280;41084;45.908;6.102;2022-08-19T19:22:18;96772.84;;;24.22;69.11
55215;BME280;41084;45.908;6.102;2022-08-19T19:24:44;96775.22;;;24.26;68.39
55215;BME280;41084;45.908;6.102;2022-08-19T19:27:10;96767.91;;;24.19;69.91
55215;BME280;41084;45.908;6.102;2022-08-19T19:29:37;96769.66;;;24.19;69.70
55215;BME280;41084;45.908;6.102;2022-08-19T19:32:06;96775.50;;;24.22;70.49
55215;BME280;41084;45.908;6.102;2022-08-19T19:34:32;96734.44;;;24.01;69.98
55215;BME280;41084;45.908;6.102;2022-08-19T19:36:57;96777.97;;;24.51;68.80
55215;BME280;41084;45.908;6.102;2022-08-19T19:39:23;96702.09;;;23.91;70.69
55215;BME280;41084;45.908;6.102;2022-08-19T19:41:48;96665.34;;;23.63;71.34
55215;BME280;41084;45.908;6.102;2022-08-19T19:44:14;96738.91;;;24.19;70.50
55215;BME280;41084;45.908;6.102;2022-08-19T19:46:40;96790.09;;;24.35;72.82
55215;BME280;41084;45.908;6.102;2022-08-19T19:49:10;96794.69;;;24.33;72.18
55215;BME280;41084;45.908;6.102;2022-08-19T19:51:36;96680.03;;;23.47;73.80
55215;BME280;41084;45.908;6.102;2022-08-19T19:54:09;96803.06;;;24.10;76.87
55215;BME280;41084;45.908;6.102;2022-08-19T19:56:38;96743.31;;;23.56;75.86
55215;BME280;41084;45.908;6.102;2022-08-19T19:59:05;96803.81;;;24.02;74.79
55215;BME280;41084;45.908;6.102;2022-08-19T20:01:31;96692.09;;;23.40;75.34
55215;BME280;41084;45.908;6.102;2022-08-19T20:03:57;96797.50;;;23.58;79.06
55215;BME280;41084;45.908;6.102;2022-08-19T20:06:25;96542.75;;;21.94;79.05
55215;BME280;41084;45.908;6.102;2022-08-19T20:08:53;96675.25;;;22.96;76.38
55215;BME280;41084;45.908;6.102;2022-08-19T20:14:11;96781.91;;;23.47;78.86
55215;BME280;41084;45.908;6.102;2022-08-19T20:16:38;96810.00;;;23.56;78.74
55215;BME280;41084;45.908;6.102;2022-08-19T20:19:07;96704.09;;;22.88;79.90
55215;BME280;41084;45.908;6.102;2022-08-19T20:21:32;96811.41;;;23.50;81.75
55215;BME280;41084;45.908;6.102;2022-08-19T20:23:59;96733.97;;;22.97;81.35
55215;BME280;41084;45.908;6.102;2022-08-19T20:26:26;96821.81;;;23.42;83.03
55215;BME280;41084;45.908;6.102;2022-08-19T20:28:55;96827.28;;;23.30;84.21
55215;BME280;41084;45.908;6.102;2022-08-19T20:31:21;96747.53;;;22.64;84.65
55215;BME280;41084;45.908;6.102;2022-08-19T20:33:47;96754.63;;;22.43;86.61
55215;BME280;41084;45.908;6.102;2022-08-19T20:36:13;96748.59;;;22.33;86.87
55215;BME280;41084;45.908;6.102;2022-08-19T20:38:39;96829.78;;;23.04;84.75
55215;BME280;41084;45.908;6.102;2022-08-19T20:41:05;96822.25;;;22.81;88.11
55215;BME280;41084;45.908;6.102;2022-08-19T20:43:31;96823.25;;;22.60;88.26
55215;BME280;41084;45.908;6.102;2022-08-19T20:45:57;96765.50;;;22.01;88.49
55215;BME280;41084;45.908;6.102;2022-08-19T20:48:22;96814.56;;;22.40;87.62
55215;BME280;41084;45.908;6.102;2022-08-19T20:50:48;96813.88;;;22.38;88.13
